sensor_id;sensor_type;location;lat;lon;timestamp;P1;durP1;ratioP1;P2;durP2;ratioP2
70951;SDS011;69214;55.880;37.542;2023-05-27T00:00:10;5.00;;;2.00;;
70951;SDS011;69214;55.880;37.542;2023-05-27T00:02:38;5.88;;;1.77;;
70951;SDS011;69214;55.880;37.542;2023-05-27T00:05:04;6.13;;;2.08;;
70951;SDS011;69214;55.880;37.542;2023-05-27T00:07:32;5.45;;;1.92;;
70951;SDS011;69214;55.880;37.542;2023-05-27T00:09:58;5.32;;;2.30;;
70951;SDS011;69214;55.880;37.542;2023-05-27T00:12:24;5.23;;;2.43;;
70951;SDS011;69214;55.880;37.542;2023-05-27T00:14:50;6.63;;;2.05;;
70951;SDS011;69214;55.880;37.542;2023-05-27T00:17:16;4.72;;;1.60;;
70951;SDS011;69214;55.880;37.542;2023-05-27T00:19:41;5.15;;;2.05;;
70951;SDS011;69214;55.880;37.542;2023-05-27T00:22:11;5.20;;;1.90;;
70951;SDS011;69214;55.880;37.542;2023-05-27T00:24:37;5.35;;;2.75;;
70951;SDS011;69214;55.880;37.542;2023-05-27T00:27:06;4.70;;;2.20;;
70951;SDS011;69214;55.880;37.542;2023-05-27T00:29:33;4.70;;;2.00;;
70951;SDS011;69214;55.880;37.542;2023-05-27T00:32:00;5.28;;;2.00;;
70951;SDS011;69214;55.880;37.542;2023-05-27T00:34:32;5.60;;;1.90;;
70951;SDS011;69214;55.880;37.542;2023-05-27T00:37:01;6.28;;;2.20;;
70951;SDS011;69214;55.880;37.542;2023-05-27T00:39:28;4.40;;;1.90;;
70951;SDS011;69214;55.880;37.542;2023-05-27T00:41:54;5.97;;;2.22;;
70951;SDS011;69214;55.880;37.542;2023-05-27T00:44:20;5.28;;;2.15;;
70951;SDS011;69214;55.880;37.542;2023-05-27T00:46:47;7.07;;;2.50;;
70951;SDS011;69214;55.880;37.542;2023-05-27T00:49:16;5.75;;;2.42;;
70951;SDS011;69214;55.880;37.542;2023-05-27T00:51:42;5.65;;;2.20;;
70951;SDS011;69214;55.880;37.542;2023-05-27T00:54:08;4.63;;;2.00;;
70951;SDS011;69214;55.880;37.542;2023-05-27T00:56:37;8.57;;;2.50;;
70951;SDS011;69214;55.880;37.542;2023-05-27T00:59:03;5.65;;;2.35;;
70951;SDS011;69214;55.880;37.542;2023-05-27T01:01:30;4.57;;;2.20;;
70951;SDS011;69214;55.880;37.542;2023-05-27T01:03:59;6.63;;;2.53;;
70951;SDS011;69214;55.880;37.542;2023-05-27T01:06:39;6.05;;;2.25;;
70951;SDS011;69214;55.880;37.542;2023-05-27T01:09:11;5.43;;;2.00;;
70951;SDS011;69214;55.880;37.542;2023-05-27T01:15:04;5.65;;;2.35;;
70951;SDS011;69214;55.880;37.542;2023-05-27T01:17:32;3.45;;;1.42;;
70951;SDS011;69214;55.880;37.542;2023-05-27T01:20:03;4.97;;;1.90;;
70951;SDS011;69214;55.880;37.542;2023-05-27T01:22:35;6.17;;;2.10;;
70951;SDS011;69214;55.880;37.542;2023-05-27T01:25:03;6.18;;;1.90;;
70951;SDS011;69214;55.880;37.542;2023-05-27T01:27:30;5.70;;;1.90;;
70951;SDS011;69214;55.880;37.542;2023-05-27T01:29:58;5.18;;;2.25;;
70951;SDS011;69214;55.880;37.542;2023-05-27T01:32:53;6.20;;;2.10;;
70951;SDS011;69214;55.880;37.542;2023-05-27T01:35:44;5.33;;;2.23;;
70951;SDS011;69214;55.880;37.542;2023-05-27T01:38:14;6.07;;;2.15;;
70951;SDS011;69214;55.880;37.542;2023-05-27T01:40:43;6.47;;;2.30;;
70951;SDS011;69214;55.880;37.542;2023-05-27T01:43:11;5.68;;;2.50;;
70951;SDS011;69214;55.880;37.542;2023-05-27T01:45:39;4.35;;;1.90;;
70951;SDS011;69214;55.880;37.542;2023-05-27T01:48:07;6.27;;;2.23;;
70951;SDS011;69214;55.880;37.542;2023-05-27T01:50:35;4.22;;;2.00;;
70951;SDS011;69214;55.880;37.542;2023-05-27T01:53:01;6.00;;;2.50;;
70951;SDS011;69214;55.880;37.542;2023-05-27T01:55:29;5.25;;;2.00;;
70951;SDS011;69214;55.880;37.542;2023-05-27T01:57:57;5.20;;;2.10;;
70951;SDS011;69214;55.880;37.542;2023-05-27T02:00:23;8.60;;;2.10;;
70951;SDS011;69214;55.880;37.542;2023-05-27T02:02:51;4.32;;;1.67;;
70951;SDS011;69214;55.880;37.542;2023-05-27T02:05:17;3.95;;;1.58;;
70951;SDS011;69214;55.880;37.542;2023-05-27T02:07:43;5.55;;;2.25;;
70951;SDS011;69214;55.880;37.542;2023-05-27T02:10:10;5.13;;;2.00;;
70951;SDS011;69214;55.880;37.542;2023-05-27T02:12:36;7.50;;;2.20;;
70951;SDS011;69214;55.880;37.542;2023-05-27T02:15:02;4.88;;;1.88;;
70951;SDS011;69214;55.880;37.542;2023-05-27T02:17:33;5.20;;;2.03;;
70951;SDS011;69214;55.880;37.542;2023-05-27T02:19:59;4.50;;;1.88;;
70951;SDS011;69214;55.880;37.542;2023-05-27T02:22:26;4.83;;;1.77;;
70951;SDS011;69214;55.880;37.542;2023-05-27T02:24:52;4.03;;;1.60;;
70951;SDS011;69214;55.880;37.542;2023-05-27T02:27:18;7.30;;;2.25;;
70951;SDS011;69214;55.880;37.542;2023-05-27T02:29:44;4.28;;;1.80;;
70951;SDS011;69214;55.880;37.542;2023-05-27T02:32:10;4.97;;;1.53;;
70951;SDS011;69214;55.880;37.542;2023-05-27T02:34:36;3.95;;;1.50;;
70951;SDS011;69214;55.880;37.542;2023-05-27T02:37:05;4.30;;;1.50;;
70951;SDS011;69214;55.880;37.542;2023-05-27T02:39:31;5.10;;;1.80;;
70951;SDS011;69214;55.880;37.542;2023-05-27T02:41:57;4.28;;;1.80;;
70951;SDS011;69214;55.880;37.542;2023-05-27T02:44:23;6.07;;;1.97;;
70951;SDS011;69214;55.880;37.542;2023-05-27T02:46:51;5.57;;;1.60;;
70951;SDS011;69214;55.880;37.542;2023-05-27T02:49:17;5.13;;;1.92;;
70951;SDS011;69214;55.880;37.542;2023-05-27T02:51:44;3.28;;;1.25;;
70951;SDS011;69214;55.880;37.542;2023-05-27T02:54:10;4.07;;;1.45;;
70951;SDS011;69214;55.880;37.542;2023-05-27T02:56:36;3.27;;;1.47;;
70951;SDS011;69214;55.880;37.542;2023-05-27T02:59:02;4.93;;;1.40;;
70951;SDS011;69214;55.880;37.542;2023-05-27T03:01:28;4.15;;;1.52;;
70951;SDS011;69214;55.880;37.542;2023-05-27T03:03:54;4.03;;;1.45;;
70951;SDS011;69214;55.880;37.542;2023-05-27T03:06:20;3.17;;;1.53;;
70951;SDS011;69214;55.880;37.542;2023-05-27T03:08:46;3.03;;;1.27;;
70951;SDS011;69214;55.880;37.542;2023-05-27T03:11:11;5.25;;;1.40;;
70951;SDS011;69214;55.880;37.542;2023-05-27T03:13:37;3.03;;;1.40;;
70951;SDS011;69214;55.880;37.542;2023-05-27T03:16:04;4.13;;;1.40;;
70951;SDS011;69214;55.880;37.542;2023-05-27T03:18:31;3.80;;;1.63;;
70951;SDS011;69214;55.880;37.542;2023-05-27T03:20:57;5.03;;;1.50;;
70951;SDS011;69214;55.880;37.542;2023-05-27T03:23:23;4.63;;;1.30;;
70951;SDS011;69214;55.880;37.542;2023-05-27T03:25:49;3.08;;;1.33;;
70951;SDS011;69214;55.880;37.542;2023-05-27T03:28:16;3.22;;;1.25;;
70951;SDS011;69214;55.880;37.542;2023-05-27T03:30:42;3.58;;;1.35;;
70951;SDS011;69214;55.880;37.542;2023-05-27T03:33:14;4.07;;;1.40;;
70951;SDS011;69214;55.880;37.542;2023-05-27T03:35:40;2.77;;;1.10;;
70951;SDS011;69214;55.880;37.542;2023-05-27T03:38:05;3.80;;;1.38;;
70951;SDS011;69214;55.880;37.542;2023-05-27T03:40:32;3.13;;;1.40;;
70951;SDS011;69214;55.880;37.542;2023-05-27T03:42:58;2.67;;;1.07;;
70951;SDS011;69214;55.880;37.542;2023-05-27T03:45:24;2.55;;;1.30;;
70951;SDS011;69214;55.880;37.542;2023-05-27T03:47:50;4.95;;;1.20;;
70951;SDS011;69214;55.880;37.542;2023-05-27T03:50:18;3.15;;;1.27;;
70951;SDS011;69214;55.880;37.542;2023-05-27T03:52:46;3.77;;;1.20;;
70951;SDS011;69214;55.880;37.542;2023-05-27T03:55:11;4.10;;;1.30;;
70951;SDS011;69214;55.880;37.542;2023-05-27T03:57:39;2.85;;;1.23;;
70951;SDS011;69214;55.880;37.542;2023-05-27T04:00:06;3.40;;;1.20;;
70951;SDS011;69214;55.880;37.542;2023-05-27T04:02:48;3.13;;;1.10;;
70951;SDS011;69214;55.880;37.542;2023-05-27T04:05:15;3.83;;;1.27;;
70951;SDS011;69214;55.880;37.542;2023-05-27T04:07:44;2.70;;;1.30;;
70951;SDS011;69214;55.880;37.542;2023-05-27T04:10:10;3.25;;;1.25;;
70951;SDS011;69214;55.880;37.542;2023-05-27T04:12:36;3.33;;;1.30;;
70951;SDS011;69214;55.880;37.542;2023-05-27T04:15:04;3.50;;;1.20;;
70951;SDS011;69214;55.880;37.542;2023-05-27T04:17:32;6.93;;;1.10;;
70951;SDS011;69214;55.880;37.542;2023-05-27T04:19:58;3.88;;;1.42;;
70951;SDS011;69214;55.880;37.542;2023-05-27T04:22:26;4.38;;;1.15;;
70951;SDS011;69214;55.880;37.542;2023-05-27T04:24:52;3.10;;;1.23;;
70951;SDS011;69214;55.880;37.542;2023-05-27T04:27:19;4.73;;;1.53;;
70951;SDS011;69214;55.880;37.542;2023-05-27T04:29:46;3.00;;;1.30;;
70951;SDS011;69214;55.880;37.542;2023-05-27T04:32:16;3.38;;;1.30;;
70951;SDS011;69214;55.880;37.542;2023-05-27T04:34:43;2.92;;;1.20;;
70951;SDS011;69214;55.880;37.542;2023-05-27T04:37:09;3.80;;;1.50;;
70951;SDS011;69214;55.880;37.542;2023-05-27T04:39:36;1.95;;;1.30;;
70951;SDS011;69214;55.880;37.542;2023-05-27T04:42:06;2.72;;;1.30;;
70951;SDS011;69214;55.880;37.542;2023-05-27T04:44:32;3.67;;;1.63;;
70951;SDS011;69214;55.880;37.542;2023-05-27T04:47:00;3.50;;;1.20;;
70951;SDS011;69214;55.880;37.542;2023-05-27T04:49:26;2.37;;;1.27;;
70951;SDS011;69214;55.880;37.542;2023-05-27T04:51:53;2.55;;;1.30;;
70951;SDS011;69214;55.880;37.542;2023-05-27T04:54:20;4.05;;;1.40;;
70951;SDS011;69214;55.880;37.542;2023-05-27T04:56:47;2.88;;;1.40;;
70951;SDS011;69214;55.880;37.542;2023-05-27T04:59:19;3.70;;;1.40;;
70951;SDS011;69214;55.880;37.542;2023-05-27T05:01:47;2.97;;;1.60;;
70951;SDS011;69214;55.880;37.542;2023-05-27T05:04:45;2.72;;;1.23;;
70951;SDS011;69214;55.880;37.542;2023-05-27T05:07:12;2.72;;;1.70;;
70951;SDS011;69214;55.880;37.542;2023-05-27T05:09:40;3.85;;;1.70;;
70951;SDS011;69214;55.880;37.542;2023-05-27T05:12:12;3.60;;;1.38;;
70951;SDS011;69214;55.880;37.542;2023-05-27T05:14:41;2.77;;;1.60;;
70951;SDS011;69214;55.880;37.542;2023-05-27T05:17:07;3.63;;;1.65;;
70951;SDS011;69214;55.880;37.542;2023-05-27T05:19:32;2.55;;;1.20;;
70951;SDS011;69214;55.880;37.542;2023-05-27T05:21:59;3.20;;;1.33;;
70951;SDS011;69214;55.880;37.542;2023-05-27T05:24:27;3.00;;;1.50;;
70951;SDS011;69214;55.880;37.542;2023-05-27T05:26:53;3.63;;;1.98;;
70951;SDS011;69214;55.880;37.542;2023-05-27T05:29:19;2.80;;;1.80;;
70951;SDS011;69214;55.880;37.542;2023-05-27T05:31:45;2.10;;;1.80;;
70951;SDS011;69214;55.880;37.542;2023-05-27T05:34:11;3.03;;;1.80;;
70951;SDS011;69214;55.880;37.542;2023-05-27T05:36:37;3.33;;;1.92;;
70951;SDS011;69214;55.880;37.542;2023-05-27T05:39:06;2.80;;;1.87;;
70951;SDS011;69214;55.880;37.542;2023-05-27T05:41:33;2.63;;;1.90;;
70951;SDS011;69214;55.880;37.542;2023-05-27T05:43:59;4.25;;;2.00;;
70951;SDS011;69214;55.880;37.542;2023-05-27T05:46:25;3.22;;;2.20;;
70951;SDS011;69214;55.880;37.542;2023-05-27T05:48:51;3.17;;;2.20;;
70951;SDS011;69214;55.880;37.542;2023-05-27T05:51:26;2.67;;;2.23;;
70951;SDS011;69214;55.880;37.542;2023-05-27T05:53:56;3.22;;;2.35;;
70951;SDS011;69214;55.880;37.542;2023-05-27T05:56:24;3.17;;;2.25;;
70951;SDS011;69214;55.880;37.542;2023-05-27T05:58:51;3.85;;;2.80;;
70951;SDS011;69214;55.880;37.542;2023-05-27T06:01:18;4.53;;;2.65;;
70951;SDS011;69214;55.880;37.542;2023-05-27T06:03:43;2.93;;;2.53;;
70951;SDS011;69214;55.880;37.542;2023-05-27T06:06:20;3.40;;;2.58;;
70951;SDS011;69214;55.880;37.542;2023-05-27T06:09:05;4.03;;;2.70;;
70951;SDS011;69214;55.880;37.542;2023-05-27T06:11:32;4.38;;;2.80;;
70951;SDS011;69214;55.880;37.542;2023-05-27T06:13:58;4.83;;;3.00;;
70951;SDS011;69214;55.880;37.542;2023-05-27T06:16:24;3.83;;;3.05;;
70951;SDS011;69214;55.880;37.542;2023-05-27T06:18:50;6.43;;;3.03;;
70951;SDS011;69214;55.880;37.542;2023-05-27T06:21:16;3.53;;;2.95;;
70951;SDS011;69214;55.880;37.542;2023-05-27T06:24:10;4.57;;;3.05;;
70951;SDS011;69214;55.880;37.542;2023-05-27T06:26:42;3.93;;;3.43;;
70951;SDS011;69214;55.880;37.542;2023-05-27T06:29:08;5.80;;;3.13;;
70951;SDS011;69214;55.880;37.542;2023-05-27T06:31:34;3.65;;;3.10;;
70951;SDS011;69214;55.880;37.542;2023-05-27T06:33:59;3.33;;;2.97;;
70951;SDS011;69214;55.880;37.542;2023-05-27T06:36:26;3.90;;;3.40;;
70951;SDS011;69214;55.880;37.542;2023-05-27T06:38:52;4.07;;;3.60;;
70951;SDS011;69214;55.880;37.542;2023-05-27T06:41:19;3.90;;;3.50;;
70951;SDS011;69214;55.880;37.542;2023-05-27T06:44:01;5.80;;;3.87;;
70951;SDS011;69214;55.880;37.542;2023-05-27T06:46:56;4.30;;;3.90;;
70951;SDS011;69214;55.880;37.542;2023-05-27T06:49:29;4.65;;;4.15;;
70951;SDS011;69214;55.880;37.542;2023-05-27T06:51:58;4.85;;;3.83;;
70951;SDS011;69214;55.880;37.542;2023-05-27T06:54:26;5.25;;;4.80;;
70951;SDS011;69214;55.880;37.542;2023-05-27T06:57:02;5.37;;;4.67;;
70951;SDS011;69214;55.880;37.542;2023-05-27T06:59:54;4.47;;;4.07;;
70951;SDS011;69214;55.880;37.542;2023-05-27T07:02:21;5.65;;;5.15;;
70951;SDS011;69214;55.880;37.542;2023-05-27T07:04:47;5.00;;;4.50;;
70951;SDS011;69214;55.880;37.542;2023-05-27T07:07:13;5.50;;;5.00;;
70951;SDS011;69214;55.880;37.542;2023-05-27T07:09:39;5.00;;;4.60;;
70951;SDS011;69214;55.880;37.542;2023-05-27T07:12:05;5.53;;;5.03;;
70951;SDS011;69214;55.880;37.542;2023-05-27T07:14:51;5.10;;;4.63;;
70951;SDS011;69214;55.880;37.542;2023-05-27T07:17:18;4.77;;;4.37;;
70951;SDS011;69214;55.880;37.542;2023-05-27T07:19:44;4.93;;;4.53;;
70951;SDS011;69214;55.880;37.542;2023-05-27T07:22:15;4.20;;;3.78;;
70951;SDS011;69214;55.880;37.542;2023-05-27T07:24:40;5.53;;;4.40;;
70951;SDS011;69214;55.880;37.542;2023-05-27T07:27:07;5.63;;;4.77;;
70951;SDS011;69214;55.880;37.542;2023-05-27T07:29:34;4.53;;;4.07;;
70951;SDS011;69214;55.880;37.542;2023-05-27T07:32:18;4.78;;;4.03;;
70951;SDS011;69214;55.880;37.542;2023-05-27T07:34:48;4.57;;;4.00;;
70951;SDS011;69214;55.880;37.542;2023-05-27T07:37:14;4.53;;;4.13;;
70951;SDS011;69214;55.880;37.542;2023-05-27T07:39:40;4.97;;;3.77;;
70951;SDS011;69214;55.880;37.542;2023-05-27T07:42:07;4.22;;;3.83;;
70951;SDS011;69214;55.880;37.542;2023-05-27T07:44:33;4.10;;;3.70;;
70951;SDS011;69214;55.880;37.542;2023-05-27T07:46:59;4.57;;;4.17;;
70951;SDS011;69214;55.880;37.542;2023-05-27T07:49:26;4.32;;;3.90;;
70951;SDS011;69214;55.880;37.542;2023-05-27T07:52:08;4.78;;;4.28;;
70951;SDS011;69214;55.880;37.542;2023-05-27T07:54:34;4.30;;;3.67;;
70951;SDS011;69214;55.880;37.542;2023-05-27T07:57:00;4.10;;;3.43;;
70951;SDS011;69214;55.880;37.542;2023-05-27T07:59:26;4.13;;;3.72;;
70951;SDS011;69214;55.880;37.542;2023-05-27T08:01:52;4.32;;;3.22;;
70951;SDS011;69214;55.880;37.542;2023-05-27T08:04:18;3.70;;;3.13;;
70951;SDS011;69214;55.880;37.542;2023-05-27T08:07:17;3.92;;;2.80;;
70951;SDS011;69214;55.880;37.542;2023-05-27T08:09:58;4.30;;;2.90;;
70951;SDS011;69214;55.880;37.542;2023-05-27T08:12:53;3.65;;;3.10;;
70951;SDS011;69214;55.880;37.542;2023-05-27T08:15:42;3.08;;;2.58;;
70951;SDS011;69214;55.880;37.542;2023-05-27T08:18:22;3.77;;;2.00;;
70951;SDS011;69214;55.880;37.542;2023-05-27T08:21:00;3.65;;;1.83;;
70951;SDS011;69214;55.880;37.542;2023-05-27T08:23:49;3.15;;;1.80;;
70951;SDS011;69214;55.880;37.542;2023-05-27T08:26:34;2.72;;;1.50;;
70951;SDS011;69214;55.880;37.542;2023-05-27T08:29:20;2.20;;;1.10;;
70951;SDS011;69214;55.880;37.542;2023-05-27T08:32:07;4.10;;;1.20;;
70951;SDS011;69214;55.880;37.542;2023-05-27T08:34:33;2.25;;;0.85;;
70951;SDS011;69214;55.880;37.542;2023-05-27T08:36:59;3.25;;;1.00;;
70951;SDS011;69214;55.880;37.542;2023-05-27T08:39:27;2.90;;;0.60;;
70951;SDS011;69214;55.880;37.542;2023-05-27T08:42:10;5.40;;;0.90;;
70951;SDS011;69214;55.880;37.542;2023-05-27T08:44:36;2.57;;;0.90;;
70951;SDS011;69214;55.880;37.542;2023-05-27T08:47:05;2.90;;;0.70;;
70951;SDS011;69214;55.880;37.542;2023-05-27T08:49:32;3.53;;;0.77;;
70951;SDS011;69214;55.880;37.542;2023-05-27T08:51:58;6.05;;;0.90;;
70951;SDS011;69214;55.880;37.542;2023-05-27T08:54:26;4.80;;;0.90;;
70951;SDS011;69214;55.880;37.542;2023-05-27T08:56:57;3.05;;;0.77;;
70951;SDS011;69214;55.880;37.542;2023-05-27T08:59:25;4.13;;;0.68;;
70951;SDS011;69214;55.880;37.542;2023-05-27T09:01:54;2.58;;;0.60;;
70951;SDS011;69214;55.880;37.542;2023-05-27T09:04:20;2.50;;;0.80;;
70951;SDS011;69214;55.880;37.542;2023-05-27T09:06:46;1.87;;;0.60;;
70951;SDS011;69214;55.880;37.542;2023-05-27T09:09:12;2.33;;;0.70;;
70951;SDS011;69214;55.880;37.542;2023-05-27T09:11:39;2.60;;;0.67;;
70951;SDS011;69214;55.880;37.542;2023-05-27T09:14:06;1.88;;;0.57;;
70951;SDS011;69214;55.880;37.542;2023-05-27T09:16:32;3.80;;;0.80;;
70951;SDS011;69214;55.880;37.542;2023-05-27T09:18:57;8.98;;;3.55;;
70951;SDS011;69214;55.880;37.542;2023-05-27T09:21:24;3.13;;;0.97;;
70951;SDS011;69214;55.880;37.542;2023-05-27T09:23:56;2.72;;;0.90;;
70951;SDS011;69214;55.880;37.542;2023-05-27T09:26:23;2.13;;;0.60;;
70951;SDS011;69214;55.880;37.542;2023-05-27T09:28:50;4.05;;;0.73;;
70951;SDS011;69214;55.880;37.542;2023-05-27T09:31:27;6.22;;;0.82;;
70951;SDS011;69214;55.880;37.542;2023-05-27T09:33:53;3.63;;;0.90;;
70951;SDS011;69214;55.880;37.542;2023-05-27T09:36:22;2.50;;;0.68;;
70951;SDS011;69214;55.880;37.542;2023-05-27T09:38:48;2.50;;;0.82;;
70951;SDS011;69214;55.880;37.542;2023-05-27T09:41:14;5.20;;;0.83;;
70951;SDS011;69214;55.880;37.542;2023-05-27T09:43:39;1.83;;;0.57;;
70951;SDS011;69214;55.880;37.542;2023-05-27T09:46:10;1.75;;;0.45;;
70951;SDS011;69214;55.880;37.542;2023-05-27T09:48:38;5.75;;;0.80;;
70951;SDS011;69214;55.880;37.542;2023-05-27T09:51:04;4.70;;;0.70;;
70951;SDS011;69214;55.880;37.542;2023-05-27T09:53:31;2.05;;;0.70;;
70951;SDS011;69214;55.880;37.542;2023-05-27T09:55:58;3.20;;;0.90;;
70951;SDS011;69214;55.880;37.542;2023-05-27T09:58:25;2.40;;;0.55;;
70951;SDS011;69214;55.880;37.542;2023-05-27T10:00:51;6.47;;;0.80;;
70951;SDS011;69214;55.880;37.542;2023-05-27T10:03:21;2.20;;;0.70;;
70951;SDS011;69214;55.880;37.542;2023-05-27T10:05:50;5.30;;;0.80;;
70951;SDS011;69214;55.880;37.542;2023-05-27T10:08:17;2.83;;;0.82;;
70951;SDS011;69214;55.880;37.542;2023-05-27T10:10:44;2.83;;;0.60;;
70951;SDS011;69214;55.880;37.542;2023-05-27T10:13:13;6.80;;;0.82;;
70951;SDS011;69214;55.880;37.542;2023-05-27T10:15:46;3.00;;;0.67;;
70951;SDS011;69214;55.880;37.542;2023-05-27T10:18:22;2.55;;;0.60;;
70951;SDS011;69214;55.880;37.542;2023-05-27T10:20:50;3.35;;;0.60;;
70951;SDS011;69214;55.880;37.542;2023-05-27T10:26:04;2.20;;;0.60;;
70951;SDS011;69214;55.880;37.542;2023-05-27T10:31:11;3.80;;;0.80;;
70951;SDS011;69214;55.880;37.542;2023-05-27T10:33:42;2.50;;;0.50;;
70951;SDS011;69214;55.880;37.542;2023-05-27T10:38:42;3.58;;;0.60;;
70951;SDS011;69214;55.880;37.542;2023-05-27T10:41:19;1.90;;;0.50;;
70951;SDS011;69214;55.880;37.542;2023-05-27T10:43:54;4.70;;;0.65;;
70951;SDS011;69214;55.880;37.542;2023-05-27T10:46:23;2.20;;;0.52;;
70951;SDS011;69214;55.880;37.542;2023-05-27T10:48:50;2.15;;;0.60;;
70951;SDS011;69214;55.880;37.542;2023-05-27T10:51:16;1.87;;;0.50;;
70951;SDS011;69214;55.880;37.542;2023-05-27T10:53:42;1.88;;;0.45;;
70951;SDS011;69214;55.880;37.542;2023-05-27T10:56:07;1.98;;;0.50;;
70951;SDS011;69214;55.880;37.542;2023-05-27T10:58:35;2.78;;;1.05;;
70951;SDS011;69214;55.880;37.542;2023-05-27T11:01:09;3.00;;;0.77;;
70951;SDS011;69214;55.880;37.542;2023-05-27T11:03:46;2.50;;;0.65;;
70951;SDS011;69214;55.880;37.542;2023-05-27T11:06:14;3.72;;;0.70;;
70951;SDS011;69214;55.880;37.542;2023-05-27T11:08:42;2.97;;;0.90;;
70951;SDS011;69214;55.880;37.542;2023-05-27T11:11:08;5.50;;;0.70;;
70951;SDS011;69214;55.880;37.542;2023-05-27T11:13:36;2.57;;;0.57;;
70951;SDS011;69214;55.880;37.542;2023-05-27T11:16:06;1.90;;;0.43;;
70951;SDS011;69214;55.880;37.542;2023-05-27T11:18:39;1.73;;;0.70;;
70951;SDS011;69214;55.880;37.542;2023-05-27T11:21:15;2.20;;;0.40;;
70951;SDS011;69214;55.880;37.542;2023-05-27T11:23:43;3.45;;;0.50;;
70951;SDS011;69214;55.880;37.542;2023-05-27T11:26:11;1.87;;;0.40;;
70951;SDS011;69214;55.880;37.542;2023-05-27T11:28:45;2.35;;;0.40;;
70951;SDS011;69214;55.880;37.542;2023-05-27T11:31:12;2.30;;;0.60;;
70951;SDS011;69214;55.880;37.542;2023-05-27T11:33:42;2.50;;;0.55;;
70951;SDS011;69214;55.880;37.542;2023-05-27T11:36:12;4.03;;;0.43;;
70951;SDS011;69214;55.880;37.542;2023-05-27T11:38:53;2.60;;;0.40;;
70951;SDS011;69214;55.880;37.542;2023-05-27T11:41:27;2.33;;;0.50;;
70951;SDS011;69214;55.880;37.542;2023-05-27T11:43:57;2.55;;;0.60;;
70951;SDS011;69214;55.880;37.542;2023-05-27T11:46:35;2.58;;;0.50;;
70951;SDS011;69214;55.880;37.542;2023-05-27T11:49:12;3.60;;;0.40;;
70951;SDS011;69214;55.880;37.542;2023-05-27T11:51:40;2.90;;;0.57;;
70951;SDS011;69214;55.880;37.542;2023-05-27T11:54:17;2.67;;;0.50;;
70951;SDS011;69214;55.880;37.542;2023-05-27T11:56:43;7.30;;;0.60;;
70951;SDS011;69214;55.880;37.542;2023-05-27T11:59:09;1.70;;;0.40;;
70951;SDS011;69214;55.880;37.542;2023-05-27T12:01:35;2.57;;;0.50;;
70951;SDS011;69214;55.880;37.542;2023-05-27T12:04:01;1.00;;;0.28;;
70951;SDS011;69214;55.880;37.542;2023-05-27T12:06:27;1.85;;;0.50;;
70951;SDS011;69214;55.880;37.542;2023-05-27T12:08:52;1.87;;;0.50;;
70951;SDS011;69214;55.880;37.542;2023-05-27T12:11:18;2.17;;;0.30;;
70951;SDS011;69214;55.880;37.542;2023-05-27T12:13:44;1.48;;;0.40;;
70951;SDS011;69214;55.880;37.542;2023-05-27T12:16:10;2.53;;;0.40;;
70951;SDS011;69214;55.880;37.542;2023-05-27T12:18:36;2.00;;;0.52;;
70951;SDS011;69214;55.880;37.542;2023-05-27T12:21:02;2.58;;;0.50;;
70951;SDS011;69214;55.880;37.542;2023-05-27T12:23:28;2.85;;;0.50;;
70951;SDS011;69214;55.880;37.542;2023-05-27T12:25:54;6.37;;;0.63;;
70951;SDS011;69214;55.880;37.542;2023-05-27T12:28:20;7.28;;;0.50;;
70951;SDS011;69214;55.880;37.542;2023-05-27T12:30:46;2.53;;;0.40;;
70951;SDS011;69214;55.880;37.542;2023-05-27T12:33:12;1.88;;;0.45;;
70951;SDS011;69214;55.880;37.542;2023-05-27T12:35:38;4.80;;;0.40;;
70951;SDS011;69214;55.880;37.542;2023-05-27T12:38:04;2.80;;;0.37;;
70951;SDS011;69214;55.880;37.542;2023-05-27T12:40:30;1.67;;;0.43;;
70951;SDS011;69214;55.880;37.542;2023-05-27T12:42:56;1.10;;;0.30;;
70951;SDS011;69214;55.880;37.542;2023-05-27T12:45:23;2.20;;;0.53;;
70951;SDS011;69214;55.880;37.542;2023-05-27T12:47:51;4.00;;;0.40;;
70951;SDS011;69214;55.880;37.542;2023-05-27T12:50:18;2.42;;;0.40;;
70951;SDS011;69214;55.880;37.542;2023-05-27T12:52:45;6.43;;;0.57;;
70951;SDS011;69214;55.880;37.542;2023-05-27T12:55:15;3.47;;;0.40;;
70951;SDS011;69214;55.880;37.542;2023-05-27T12:57:51;4.55;;;0.50;;
70951;SDS011;69214;55.880;37.542;2023-05-27T13:00:18;6.03;;;0.50;;
70951;SDS011;69214;55.880;37.542;2023-05-27T13:02:46;2.65;;;0.60;;
70951;SDS011;69214;55.880;37.542;2023-05-27T13:05:12;1.95;;;0.57;;
70951;SDS011;69214;55.880;37.542;2023-05-27T13:07:39;5.70;;;0.40;;
70951;SDS011;69214;55.880;37.542;2023-05-27T13:10:06;4.00;;;0.43;;
70951;SDS011;69214;55.880;37.542;2023-05-27T13:12:36;4.55;;;0.80;;
70951;SDS011;69214;55.880;37.542;2023-05-27T13:15:02;2.78;;;0.60;;
70951;SDS011;69214;55.880;37.542;2023-05-27T13:17:32;4.27;;;0.50;;
70951;SDS011;69214;55.880;37.542;2023-05-27T13:19:57;2.33;;;0.50;;
70951;SDS011;69214;55.880;37.542;2023-05-27T13:22:23;3.05;;;0.65;;
70951;SDS011;69214;55.880;37.542;2023-05-27T13:24:49;1.80;;;0.43;;
70951;SDS011;69214;55.880;37.542;2023-05-27T13:27:15;2.63;;;0.37;;
70951;SDS011;69214;55.880;37.542;2023-05-27T13:29:41;1.88;;;0.52;;
70951;SDS011;69214;55.880;37.542;2023-05-27T13:32:07;1.48;;;0.30;;
70951;SDS011;69214;55.880;37.542;2023-05-27T13:34:34;3.47;;;0.50;;
70951;SDS011;69214;55.880;37.542;2023-05-27T13:37:01;2.00;;;0.40;;
70951;SDS011;69214;55.880;37.542;2023-05-27T13:39:27;4.72;;;0.45;;
70951;SDS011;69214;55.880;37.542;2023-05-27T13:41:53;5.43;;;0.40;;
70951;SDS011;69214;55.880;37.542;2023-05-27T13:44:19;5.63;;;0.60;;
70951;SDS011;69214;55.880;37.542;2023-05-27T13:46:45;4.50;;;0.33;;
70951;SDS011;69214;55.880;37.542;2023-05-27T13:49:11;3.35;;;0.43;;
70951;SDS011;69214;55.880;37.542;2023-05-27T13:51:44;2.78;;;0.40;;
70951;SDS011;69214;55.880;37.542;2023-05-27T13:54:10;4.57;;;0.50;;
70951;SDS011;69214;55.880;37.542;2023-05-27T13:56:37;3.17;;;0.50;;
70951;SDS011;69214;55.880;37.542;2023-05-27T13:59:03;2.15;;;0.40;;
70951;SDS011;69214;55.880;37.542;2023-05-27T14:01:29;3.00;;;0.30;;
70951;SDS011;69214;55.880;37.542;2023-05-27T14:03:55;3.58;;;0.55;;
70951;SDS011;69214;55.880;37.542;2023-05-27T14:06:21;3.00;;;0.50;;
70951;SDS011;69214;55.880;37.542;2023-05-27T14:08:47;3.05;;;0.30;;
70951;SDS011;69214;55.880;37.542;2023-05-27T14:11:13;3.28;;;0.40;;
70951;SDS011;69214;55.880;37.542;2023-05-27T14:13:40;1.35;;;0.30;;
70951;SDS011;69214;55.880;37.542;2023-05-27T14:16:06;1.80;;;0.40;;
70951;SDS011;69214;55.880;37.542;2023-05-27T14:18:32;1.95;;;0.50;;
70951;SDS011;69214;55.880;37.542;2023-05-27T14:20:59;4.03;;;0.60;;
70951;SDS011;69214;55.880;37.542;2023-05-27T14:23:25;1.38;;;0.30;;
70951;SDS011;69214;55.880;37.542;2023-05-27T14:25:51;4.20;;;0.40;;
70951;SDS011;69214;55.880;37.542;2023-05-27T14:28:17;2.33;;;0.30;;
70951;SDS011;69214;55.880;37.542;2023-05-27T14:30:42;1.45;;;0.43;;
70951;SDS011;69214;55.880;37.542;2023-05-27T14:33:08;1.73;;;0.40;;
70951;SDS011;69214;55.880;37.542;2023-05-27T14:35:35;1.73;;;0.50;;
70951;SDS011;69214;55.880;37.542;2023-05-27T14:38:02;2.03;;;0.40;;
70951;SDS011;69214;55.880;37.542;2023-05-27T14:40:29;1.95;;;0.40;;
70951;SDS011;69214;55.880;37.542;2023-05-27T14:42:54;2.00;;;0.37;;
70951;SDS011;69214;55.880;37.542;2023-05-27T14:45:20;2.40;;;0.60;;
70951;SDS011;69214;55.880;37.542;2023-05-27T14:47:51;2.28;;;0.30;;
70951;SDS011;69214;55.880;37.542;2023-05-27T14:50:23;3.67;;;0.45;;
70951;SDS011;69214;55.880;37.542;2023-05-27T14:52:50;1.83;;;0.30;;